Time;durP1;ratioP1;P1;durP2;ratioP2;P2;SDS_P1;SDS_P2;PMS_P1;PMS_P2;Temp;Humidity;BMP_temperature;BMP_pressure;BME280_temperature;BME280_humidity;BME280_pressure;Samples;Min_cycle;Max_cycle;Signal;HPM_P1;HPM_P2
2023/09/04 00:00:55;;;;;;;1.50;1.40;;;;;;;;;;5086596;28;42130;-68
2023/09/04 00:03:25;;;;;;;2.75;1.90;;;;;;;;;;5088372;28;42755;-68
2023/09/04 00:05:53;;;;;;;2.90;2.00;;;;;;;;;;5088257;28;40413;-68
2023/09/04 00:08:22;;;;;;;2.38;2.00;;;;;;;;;;5086668;28;41640;-68
2023/09/04 00:10:52;;;;;;;3.60;1.30;;;;;;;;;;5087519;28;42480;-68
2023/09/04 00:13:19;;;;;;;1.60;1.50;;;;;;;;;;5086793;28;41662;-68
2023/09/04 00:15:47;;;;;;;2.03;1.77;;;;;;;;;;5087225;28;44244;-68
2023/09/04 00:18:16;;;;;;;1.98;1.65;;;;;;;;;;5085630;28;41825;-68
2023/09/04 00:20:44;;;;;;;2.33;1.90;;;;;;;;;;5087132;28;41444;-68
2023/09/04 00:23:12;;;;;;;1.63;1.50;;;;;;;;;;5086956;28;42203;-68
2023/09/04 00:25:40;;;;;;;1.98;1.77;;;;;;;;;;5087483;28;41432;-68
2023/09/04 00:28:10;;;;;;;2.25;1.40;;;;;;;;;;5087080;28;41763;-68
2023/09/04 00:30:38;;;;;;;3.40;1.73;;;;;;;;;;5084324;28;40753;-68
2023/09/04 00:33:07;;;;;;;1.52;1.35;;;;;;;;;;5087727;28;41201;-68
2023/09/04 00:35:35;;;;;;;2.08;1.50;;;;;;;;;;5082244;28;41882;-68
2023/09/04 00:38:03;;;;;;;2.28;1.75;;;;;;;;;;5077394;28;40136;-68
2023/09/04 00:40:31;;;;;;;2.83;1.90;;;;;;;;;;5074830;28;42805;-68
2023/09/04 00:42:58;;;;;;;1.60;1.50;;;;;;;;;;5077709;28;40019;-68
2023/09/04 00:45:29;;;;;;;2.28;1.33;;;;;;;;;;5083292;28;39875;-68
2023/09/04 00:47:57;;;;;;;3.45;1.58;;;;;;;;;;5087031;28;41317;-68
2023/09/04 00:50:25;;;;;;;1.70;1.60;;;;;;;;;;5086850;28;43126;-68
2023/09/04 00:52:54;;;;;;;1.35;1.25;;;;;;;;;;5085474;28;38284;-68
2023/09/04 00:55:22;;;;;;;1.63;1.52;;;;;;;;;;5087871;28;41784;-68
2023/09/04 00:57:51;;;;;;;1.90;1.50;;;;;;;;;;5086440;28;40083;-69
2023/09/04 01:00:22;;;;;;;1.83;1.60;;;;;;;;;;5087647;28;41595;-68
2023/09/04 01:02:52;;;;;;;2.53;2.00;;;;;;;;;;5076199;28;41597;-69
2023/09/04 01:05:20;;;;;;;3.13;1.40;;;;;;;;;;5087607;28;41066;-68
2023/09/04 01:07:48;;;;;;;1.35;1.13;;;;;;;;;;5087355;28;41572;-68
2023/09/04 01:10:18;;;;;;;1.60;1.40;;;;;;;;;;5085698;28;42141;-68
2023/09/04 01:12:47;;;;;;;1.35;1.08;;;;;;;;;;5086205;28;41200;-68
2023/09/04 01:15:15;;;;;;;2.83;1.63;;;;;;;;;;5084767;28;40559;-68
2023/09/04 01:17:43;;;;;;;1.55;1.30;;;;;;;;;;5085178;28;40952;-68
2023/09/04 01:20:23;;;;;;;1.80;1.27;;;;;;;;;;5084394;28;40192;-68
2023/09/04 01:22:51;;;;;;;1.75;1.45;;;;;;;;;;5085235;28;41237;-68
2023/09/04 01:25:19;;;;;;;1.48;1.38;;;;;;;;;;5085291;28;41350;-68
2023/09/04 01:27:49;;;;;;;1.90;1.70;;;;;;;;;;5086996;28;42071;-68
2023/09/04 01:30:18;;;;;;;2.03;1.83;;;;;;;;;;5085794;28;41717;-67
2023/09/04 01:32:48;;;;;;;1.88;1.63;;;;;;;;;;5107121;27;40284;-68
2023/09/04 01:35:16;;;;;;;1.52;1.33;;;;;;;;;;5086512;28;41953;-68
2023/09/04 01:37:46;;;;;;;1.52;1.30;;;;;;;;;;5083113;28;43149;-68
2023/09/04 01:40:14;;;;;;;1.52;1.17;;;;;;;;;;5087369;28;41288;-68
2023/09/04 01:42:42;;;;;;;2.35;1.55;;;;;;;;;;5085017;28;41698;-67
2023/09/04 01:45:10;;;;;;;1.40;1.30;;;;;;;;;;5084218;28;38744;-68
2023/09/04 01:47:38;;;;;;;2.42;1.83;;;;;;;;;;5083927;28;41302;-67
2023/09/04 01:50:07;;;;;;;2.88;1.92;;;;;;;;;;5078764;28;43154;-67
2023/09/04 01:52:35;;;;;;;2.42;2.22;;;;;;;;;;5085727;28;40616;-68
2023/09/04 01:55:05;;;;;;;3.42;2.15;;;;;;;;;;5086179;28;42585;-68
2023/09/04 01:57:33;;;;;;;1.45;1.33;;;;;;;;;;5084795;28;40878;-68
2023/09/04 02:00:01;;;;;;;1.63;1.52;;;;;;;;;;5083348;28;39867;-67
2023/09/04 02:02:29;;;;;;;2.75;1.77;;;;;;;;;;5082717;28;41404;-68
2023/09/04 02:04:57;;;;;;;1.50;1.40;;;;;;;;;;5085665;28;41312;-67
2023/09/04 02:07:25;;;;;;;4.30;1.70;;;;;;;;;;5083784;28;40971;-67
2023/09/04 02:09:53;;;;;;;2.13;1.67;;;;;;;;;;5086159;28;42226;-67
2023/09/04 02:12:22;;;;;;;1.65;1.10;;;;;;;;;;5086021;28;42260;-68
2023/09/04 02:14:51;;;;;;;1.23;1.13;;;;;;;;;;5085431;28;41572;-67
2023/09/04 02:17:19;;;;;;;1.50;1.38;;;;;;;;;;5085670;28;43130;-68
2023/09/04 02:19:48;;;;;;;1.90;1.75;;;;;;;;;;5086278;28;39142;-67
2023/09/04 02:22:16;;;;;;;1.98;1.70;;;;;;;;;;5087676;28;41456;-68
2023/09/04 02:24:46;;;;;;;1.80;1.45;;;;;;;;;;5089806;28;41343;-67
2023/09/04 02:27:14;;;;;;;1.77;1.67;;;;;;;;;;5088389;28;41400;-68
2023/09/04 02:29:43;;;;;;;1.85;1.75;;;;;;;;;;5088365;28;41183;-68
2023/09/04 02:32:11;;;;;;;1.65;1.55;;;;;;;;;;5090450;28;40318;-67
2023/09/04 02:34:40;;;;;;;1.48;1.33;;;;;;;;;;5087741;28;42124;-67
2023/09/04 02:37:08;;;;;;;2.05;1.52;;;;;;;;;;5090168;28;43148;-68
2023/09/04 02:39:36;;;;;;;2.42;1.50;;;;;;;;;;5088598;28;39933;-67
2023/09/04 02:42:04;;;;;;;1.50;1.40;;;;;;;;;;5089080;28;41700;-68
2023/09/04 02:44:32;;;;;;;1.88;1.67;;;;;;;;;;5086548;28;40339;-68
2023/09/04 02:47:01;;;;;;;1.40;1.20;;;;;;;;;;5089938;28;41591;-68
2023/09/04 02:49:30;;;;;;;2.05;1.73;;;;;;;;;;5087040;28;41368;-67
2023/09/04 02:51:58;;;;;;;1.48;1.38;;;;;;;;;;5088109;28;40728;-68
2023/09/04 02:54:26;;;;;;;3.45;1.58;;;;;;;;;;5086776;28;41028;-68
2023/09/04 02:56:54;;;;;;;1.75;1.65;;;;;;;;;;5088461;28;41911;-68
2023/09/04 02:59:22;;;;;;;1.58;1.48;;;;;;;;;;5089764;28;39975;-68
2023/09/04 03:01:51;;;;;;;2.10;1.48;;;;;;;;;;5121198;27;41285;-67
2023/09/04 03:04:20;;;;;;;1.48;1.38;;;;;;;;;;5088323;28;41793;-67
2023/09/04 03:06:48;;;;;;;1.52;1.20;;;;;;;;;;5088335;28;40853;-67
2023/09/04 03:09:16;;;;;;;1.60;1.50;;;;;;;;;;5088057;28;42127;-67
2023/09/04 03:11:45;;;;;;;2.15;1.25;;;;;;;;;;5089035;28;41377;-67
2023/09/04 03:14:13;;;;;;;1.65;1.23;;;;;;;;;;5085128;28;40081;-68
2023/09/04 03:16:42;;;;;;;1.20;1.10;;;;;;;;;;5088397;28;43136;-67
2023/09/04 03:19:10;;;;;;;4.10;1.33;;;;;;;;;;5086887;28;39622;-68
2023/09/04 03:21:39;;;;;;;1.30;1.20;;;;;;;;;;5080969;28;40027;-67
2023/09/04 03:24:08;;;;;;;1.92;1.73;;;;;;;;;;5113005;27;41029;-67
2023/09/04 03:26:36;;;;;;;1.45;1.20;;;;;;;;;;5083810;28;41525;-68
2023/09/04 03:29:05;;;;;;;2.25;2.05;;;;;;;;;;5087173;28;39655;-68
2023/09/04 03:31:33;;;;;;;1.92;1.50;;;;;;;;;;5087131;28;41370;-68
2023/09/04 03:34:01;;;;;;;1.45;1.15;;;;;;;;;;5086235;28;39352;-67
2023/09/04 03:36:30;;;;;;;1.25;1.15;;;;;;;;;;5086381;28;41576;-68
2023/09/04 03:38:59;;;;;;;2.17;1.50;;;;;;;;;;5088014;28;40749;-68
2023/09/04 03:41:27;;;;;;;6.13;1.90;;;;;;;;;;5080399;28;41370;-67
2023/09/04 03:43:55;;;;;;;1.17;1.10;;;;;;;;;;5086247;28;43010;-68
2023/09/04 03:46:23;;;;;;;2.08;1.92;;;;;;;;;;5085109;28;39286;-67
2023/09/04 03:48:51;;;;;;;2.22;1.92;;;;;;;;;;5086991;28;41285;-67
2023/09/04 03:51:19;;;;;;;1.70;1.60;;;;;;;;;;5087969;28;41920;-67
2023/09/04 03:53:47;;;;;;;1.33;1.23;;;;;;;;;;5088364;28;42574;-67
2023/09/04 03:56:17;;;;;;;1.45;1.20;;;;;;;;;;5088568;28;42036;-68
2023/09/04 03:58:45;;;;;;;1.95;1.75;;;;;;;;;;5085222;28;38998;-68
2023/09/04 04:01:13;;;;;;;1.77;1.55;;;;;;;;;;5080364;28;40728;-67
2023/09/04 04:03:41;;;;;;;1.63;1.52;;;;;;;;;;5085139;28;40770;-67
2023/09/04 04:06:12;;;;;;;2.42;2.22;;;;;;;;;;5087298;28;39864;-68
2023/09/04 04:08:40;;;;;;;1.20;1.10;;;;;;;;;;5087102;28;41158;-68
2023/09/04 04:11:08;;;;;;;1.77;1.58;;;;;;;;;;5087728;28;41988;-68
2023/09/04 04:13:37;;;;;;;1.75;1.65;;;;;;;;;;5087498;28;39869;-67
2023/09/04 04:16:05;;;;;;;1.80;1.42;;;;;;;;;;5086830;28;43096;-67
2023/09/04 04:18:33;;;;;;;1.40;1.30;;;;;;;;;;5086423;28;39837;-67
2023/09/04 04:21:02;;;;;;;1.83;1.42;;;;;;;;;;5087247;28;41306;-67
2023/09/04 04:23:30;;;;;;;1.60;1.50;;;;;;;;;;5085840;28;40883;-67
2023/09/04 04:25:58;;;;;;;1.88;1.70;;;;;;;;;;5118737;27;40052;-67
2023/09/04 04:28:26;;;;;;;2.17;1.98;;;;;;;;;;5087517;28;41331;-68
2023/09/04 04:30:57;;;;;;;1.83;1.73;;;;;;;;;;5118471;27;40634;-68
2023/09/04 04:33:26;;;;;;;1.35;1.15;;;;;;;;;;5073766;28;38739;-67
2023/09/04 04:35:54;;;;;;;1.17;1.08;;;;;;;;;;5087394;28;42140;-68
2023/09/04 04:38:22;;;;;;;1.35;1.25;;;;;;;;;;5087872;28;41397;-67
2023/09/04 04:40:51;;;;;;;1.45;1.08;;;;;;;;;;5085712;28;40674;-67
2023/09/04 04:43:19;;;;;;;1.45;1.20;;;;;;;;;;5119133;27;41801;-67
2023/09/04 04:45:48;;;;;;;1.70;1.60;;;;;;;;;;5112908;27;39833;-67
2023/09/04 04:48:19;;;;;;;1.25;1.00;;;;;;;;;;5075455;28;40075;-67
2023/09/04 04:50:48;;;;;;;1.65;1.55;;;;;;;;;;5085919;28;42438;-68
2023/09/04 04:53:16;;;;;;;1.70;1.50;;;;;;;;;;5076186;28;38781;-67
2023/09/04 04:55:44;;;;;;;1.70;1.40;;;;;;;;;;5085029;28;41955;-68
2023/09/04 04:58:13;;;;;;;1.48;1.35;;;;;;;;;;5120503;27;38734;-67
2023/09/04 05:00:41;;;;;;;2.20;2.00;;;;;;;;;;5086155;28;42696;-67
2023/09/04 05:03:10;;;;;;;1.40;1.30;;;;;;;;;;5085818;28;41410;-67
2023/09/04 05:05:39;;;;;;;1.60;1.20;;;;;;;;;;5114090;27;39207;-67
2023/09/04 05:08:07;;;;;;;1.80;1.65;;;;;;;;;;5087492;28;41424;-67
2023/09/04 05:10:36;;;;;;;1.45;1.20;;;;;;;;;;5083609;28;41536;-68
2023/09/04 05:13:04;;;;;;;1.48;1.38;;;;;;;;;;5087829;28;40436;-67
2023/09/04 05:15:32;;;;;;;1.60;1.40;;;;;;;;;;5114834;27;40237;-67
2023/09/04 05:18:00;;;;;;;2.35;2.08;;;;;;;;;;5083585;28;42135;-68
2023/09/04 05:20:28;;;;;;;5.15;2.67;;;;;;;;;;5087422;28;41370;-67
2023/09/04 05:22:57;;;;;;;1.95;1.77;;;;;;;;;;5085728;28;42918;-68
2023/09/04 05:25:29;;;;;;;1.70;1.58;;;;;;;;;;5084041;28;40002;-68
2023/09/04 05:27:57;;;;;;;2.03;1.92;;;;;;;;;;5084901;28;39983;-67
2023/09/04 05:30:25;;;;;;;1.10;0.90;;;;;;;;;;5083885;28;44100;-67
2023/09/04 05:32:53;;;;;;;6.57;3.90;;;;;;;;;;5086459;28;41033;-68
2023/09/04 05:35:22;;;;;;;10.63;4.53;;;;;;;;;;5087046;28;42565;-67
2023/09/04 05:37:50;;;;;;;5.05;2.70;;;;;;;;;;5085102;28;41980;-67
2023/09/04 05:40:19;;;;;;;4.50;2.80;;;;;;;;;;5086497;28;40904;-67
2023/09/04 05:42:47;;;;;;;5.03;2.80;;;;;;;;;;5086851;28;42638;-67
2023/09/04 05:45:16;;;;;;;7.63;3.33;;;;;;;;;;5085708;28;39955;-67
2023/09/04 05:47:44;;;;;;;6.82;2.95;;;;;;;;;;5085626;28;41666;-68
2023/09/04 05:50:12;;;;;;;7.30;3.35;;;;;;;;;;5085215;28;39200;-67
2023/09/04 05:52:40;;;;;;;5.63;2.65;;;;;;;;;;5086346;28;39353;-67
2023/09/04 05:55:08;;;;;;;8.25;2.95;;;;;;;;;;5083455;28;42835;-68
2023/09/04 05:57:37;;;;;;;7.68;2.60;;;;;;;;;;5085966;28;42702;-67
2023/09/04 06:00:07;;;;;;;8.07;2.80;;;;;;;;;;5086749;28;40348;-67
2023/09/04 06:02:42;;;;;;;6.18;2.33;;;;;;;;;;5083018;28;41633;-67
2023/09/04 06:05:11;;;;;;;6.88;2.92;;;;;;;;;;5086892;28;41259;-67
2023/09/04 06:07:39;;;;;;;3.63;2.47;;;;;;;;;;5085305;28;41505;-68
2023/09/04 06:10:09;;;;;;;8.45;2.83;;;;;;;;;;5083127;28;41393;-67
2023/09/04 06:12:38;;;;;;;10.95;2.88;;;;;;;;;;5084659;28;41477;-67
2023/09/04 06:15:07;;;;;;;9.65;2.50;;;;;;;;;;5087005;28;41584;-67
2023/09/04 06:17:35;;;;;;;10.60;2.35;;;;;;;;;;5083788;28;41722;-67
2023/09/04 06:20:04;;;;;;;3.60;2.03;;;;;;;;;;5083937;28;39766;-67
2023/09/04 06:22:32;;;;;;;4.30;1.60;;;;;;;;;;5083950;28;41642;-68
2023/09/04 06:25:00;;;;;;;11.75;2.55;;;;;;;;;;5085620;28;34000;-68
2023/09/04 06:27:28;;;;;;;8.40;3.22;;;;;;;;;;5084818;28;42118;-68
2023/09/04 06:29:57;;;;;;;4.63;2.67;;;;;;;;;;5084551;28;43341;-68
2023/09/04 06:32:25;;;;;;;6.68;2.65;;;;;;;;;;5085224;28;41306;-67
2023/09/04 06:34:53;;;;;;;4.97;2.50;;;;;;;;;;5083783;28;42566;-67
2023/09/04 06:37:21;;;;;;;4.50;2.75;;;;;;;;;;5085997;28;41965;-67
2023/09/04 06:39:49;;;;;;;3.17;2.30;;;;;;;;;;5086137;28;40305;-67
2023/09/04 06:42:18;;;;;;;5.18;3.13;;;;;;;;;;5084747;28;42248;-68
2023/09/04 06:44:46;;;;;;;5.05;2.55;;;;;;;;;;5085903;28;42927;-67
2023/09/04 06:47:16;;;;;;;5.95;2.50;;;;;;;;;;5084528;28;41319;-67
2023/09/04 06:49:44;;;;;;;5.35;3.00;;;;;;;;;;5085838;28;42167;-68
2023/09/04 06:52:12;;;;;;;6.70;2.72;;;;;;;;;;5083401;28;40469;-67
2023/09/04 06:54:41;;;;;;;4.07;1.90;;;;;;;;;;5082499;28;41792;-67
2023/09/04 06:57:09;;;;;;;2.85;2.38;;;;;;;;;;5085203;28;43149;-67
2023/09/04 06:59:37;;;;;;;3.05;1.98;;;;;;;;;;5084615;28;40442;-67
2023/09/04 07:02:05;;;;;;;4.72;2.00;;;;;;;;;;5085633;28;41326;-67
2023/09/04 07:04:34;;;;;;;8.50;3.25;;;;;;;;;;5084729;28;41555;-68
2023/09/04 07:07:02;;;;;;;4.13;1.88;;;;;;;;;;5089914;28;40375;-67
2023/09/04 07:09:30;;;;;;;5.72;2.58;;;;;;;;;;5084785;28;42539;-67
2023/09/04 07:11:58;;;;;;;6.80;2.22;;;;;;;;;;5084134;28;41404;-67
2023/09/04 07:14:26;;;;;;;7.53;1.77;;;;;;;;;;5087894;28;41664;-68
2023/09/04 07:16:54;;;;;;;5.28;2.90;;;;;;;;;;5088314;28;42121;-67
2023/09/04 07:19:38;;;;;;;14.80;3.42;;;;;;;;;;5083273;28;41333;-67
2023/09/04 07:22:06;;;;;;;18.20;2.72;;;;;;;;;;5089562;28;40398;-67
2023/09/04 07:24:34;;;;;;;22.90;4.47;;;;;;;;;;5088340;28;42080;-68
2023/09/04 07:27:02;;;;;;;13.30;3.28;;;;;;;;;;5087924;28;40386;-67
2023/09/04 07:29:30;;;;;;;14.60;2.90;;;;;;;;;;5088270;28;41660;-67
2023/09/04 07:31:59;;;;;;;18.75;3.83;;;;;;;;;;5088090;28;41438;-67
2023/09/04 07:34:27;;;;;;;34.08;3.30;;;;;;;;;;5088766;28;42383;-68
2023/09/04 07:36:56;;;;;;;18.08;2.20;;;;;;;;;;5087259;28;42181;-67
2023/09/04 07:39:24;;;;;;;14.48;5.22;;;;;;;;;;5076734;28;40525;-68
2023/09/04 07:41:52;;;;;;;5.65;2.70;;;;;;;;;;5087755;28;42489;-67
2023/09/04 07:44:20;;;;;;;10.88;3.53;;;;;;;;;;5087494;28;42098;-67
2023/09/04 07:46:48;;;;;;;12.55;3.28;;;;;;;;;;5088931;28;40520;-67
2023/09/04 07:49:19;;;;;;;11.30;3.25;;;;;;;;;;5081692;28;40774;-68
2023/09/04 07:51:47;;;;;;;18.10;4.82;;;;;;;;;;5084346;28;41992;-68
2023/09/04 07:54:16;;;;;;;13.07;3.60;;;;;;;;;;5087453;28;42237;-68
2023/09/04 07:56:44;;;;;;;17.77;3.78;;;;;;;;;;5088259;28;42626;-68
2023/09/04 07:59:12;;;;;;;11.18;3.63;;;;;;;;;;5086987;28;39985;-67
2023/09/04 08:01:41;;;;;;;20.70;3.85;;;;;;;;;;5087529;28;41701;-68
2023/09/04 08:04:09;;;;;;;16.95;3.95;;;;;;;;;;5086694;28;41288;-66
2023/09/04 08:06:37;;;;;;;27.90;5.05;;;;;;;;;;5086124;28;40560;-67
2023/09/04 08:09:05;;;;;;;27.42;4.45;;;;;;;;;;5088665;28;41221;-68
2023/09/04 08:11:35;;;;;;;27.17;4.03;;;;;;;;;;5084894;28;42134;-68
2023/09/04 08:14:03;;;;;;;37.50;4.60;;;;;;;;;;5087427;28;39896;-67
2023/09/04 08:16:31;;;;;;;39.22;5.03;;;;;;;;;;5086003;28;41981;-69
2023/09/04 08:18:59;;;;;;;45.22;4.78;;;;;;;;;;5086504;28;41558;-67
2023/09/04 08:21:27;;;;;;;44.38;4.10;;;;;;;;;;5083944;28;41778;-67
2023/09/04 08:23:55;;;;;;;31.20;4.57;;;;;;;;;;5079478;28;41646;-67
2023/09/04 08:26:23;;;;;;;29.67;4.47;;;;;;;;;;5083611;28;40359;-67
2023/09/04 08:28:52;;;;;;;24.75;3.95;;;;;;;;;;5085943;28;41747;-67
2023/09/04 08:31:21;;;;;;;17.67;4.13;;;;;;;;;;5085720;28;43155;-67
2023/09/04 08:33:50;;;;;;;19.02;3.45;;;;;;;;;;5086365;28;20640;-67
2023/09/04 08:36:18;;;;;;;16.52;3.70;;;;;;;;;;5085690;28;41630;-67
2023/09/04 08:38:45;;;;;;;15.02;3.47;;;;;;;;;;5084335;28;41066;-67
2023/09/04 08:41:14;;;;;;;13.35;3.53;;;;;;;;;;5084675;28;40765;-67
2023/09/04 08:43:42;;;;;;;11.50;3.72;;;;;;;;;;5085031;28;42413;-67
2023/09/04 08:46:11;;;;;;;14.30;3.70;;;;;;;;;;5084746;28;39812;-67
2023/09/04 08:48:40;;;;;;;11.55;3.33;;;;;;;;;;5084661;28;42056;-67
2023/09/04 08:51:08;;;;;;;6.43;2.80;;;;;;;;;;5086126;28;42297;-68
2023/09/04 08:53:36;;;;;;;14.32;3.80;;;;;;;;;;5087734;27;39883;-68
2023/09/04 08:56:04;;;;;;;6.40;2.90;;;;;;;;;;5085509;28;42674;-68
2023/09/04 08:58:32;;;;;;;13.80;3.95;;;;;;;;;;5086810;28;41292;-67
2023/09/04 09:01:00;;;;;;;7.05;3.25;;;;;;;;;;5085620;28;41635;-69
2023/09/04 09:03:30;;;;;;;16.83;3.25;;;;;;;;;;5086025;28;43291;-69
2023/09/04 09:05:58;;;;;;;5.65;3.38;;;;;;;;;;5086837;28;38914;-68
2023/09/04 09:08:26;;;;;;;4.88;3.03;;;;;;;;;;5083907;28;41950;-69
2023/09/04 09:10:54;;;;;;;9.13;3.40;;;;;;;;;;5086726;28;41798;-69
2023/09/04 09:13:22;;;;;;;5.43;3.03;;;;;;;;;;5085945;28;40535;-67
2023/09/04 09:15:51;;;;;;;3.70;3.17;;;;;;;;;;5085489;28;42171;-67
2023/09/04 09:18:37;;;;;;;10.15;3.92;;;;;;;;;;5086121;28;41644;-67
2023/09/04 09:24:14;;;;;;;8.85;6.22;;;;;;;;;;5090985;28;20572;-67
2023/09/04 09:26:42;;;;;;;7.07;5.97;;;;;;;;;;5082733;28;42179;-67
2023/09/04 09:29:12;;;;;;;6.40;5.70;;;;;;;;;;5082664;28;40271;-68
2023/09/04 09:31:41;;;;;;;7.55;5.60;;;;;;;;;;5083853;28;41455;-68
2023/09/04 09:34:09;;;;;;;5.68;4.53;;;;;;;;;;5082041;28;41573;-68
2023/09/04 09:36:37;;;;;;;5.13;4.47;;;;;;;;;;5080627;28;40212;-68
2023/09/04 09:39:06;;;;;;;8.45;6.50;;;;;;;;;;5081500;28;40689;-66
2023/09/04 09:41:36;;;;;;;10.73;6.20;;;;;;;;;;5081296;28;43191;-67
2023/09/04 09:44:04;;;;;;;8.48;5.55;;;;;;;;;;5082648;28;41399;-68
2023/09/04 09:46:34;;;;;;;12.70;6.90;;;;;;;;;;5081523;28;43104;-67
2023/09/04 09:49:02;;;;;;;7.30;6.20;;;;;;;;;;5079738;28;41068;-67
2023/09/04 09:51:32;;;;;;;6.88;5.57;;;;;;;;;;5079591;28;42053;-67
2023/09/04 09:54:00;;;;;;;7.00;5.05;;;;;;;;;;5083835;28;41941;-67
2023/09/04 09:56:28;;;;;;;6.00;5.40;;;;;;;;;;5085133;27;41160;-68
2023/09/04 09:58:57;;;;;;;6.40;5.80;;;;;;;;;;5081706;28;41605;-68
2023/09/04 10:01:27;;;;;;;8.63;6.40;;;;;;;;;;5081416;28;42289;-67
2023/09/04 10:03:55;;;;;;;6.22;5.57;;;;;;;;;;5084324;28;40212;-68
2023/09/04 10:06:24;;;;;;;6.72;5.68;;;;;;;;;;5082102;28;41583;-68
2023/09/04 10:08:52;;;;;;;5.07;4.55;;;;;;;;;;5082011;28;41221;-69
2023/09/04 10:11:20;;;;;;;5.85;4.93;;;;;;;;;;5080805;28;41114;-69
2023/09/04 10:13:51;;;;;;;6.38;4.93;;;;;;;;;;5080648;28;41952;-68
2023/09/04 10:16:28;;;;;;;6.25;5.43;;;;;;;;;;5076246;28;40220;-68
2023/09/04 10:18:59;;;;;;;13.13;6.05;;;;;;;;;;5070799;28;43034;-68
2023/09/04 10:21:28;;;;;;;17.05;5.95;;;;;;;;;;5073629;28;42827;-69
2023/09/04 10:23:58;;;;;;;17.15;6.30;;;;;;;;;;5060934;28;39768;-68
2023/09/04 10:26:27;;;;;;;21.20;5.32;;;;;;;;;;5059976;28;42532;-67
2023/09/04 10:29:01;;;;;;;12.52;5.10;;;;;;;;;;5055128;28;41764;-68
2023/09/04 10:31:30;;;;;;;12.15;5.45;;;;;;;;;;5057107;28;41353;-68
2023/09/04 10:33:58;;;;;;;14.18;5.32;;;;;;;;;;5055007;28;41633;-68
2023/09/04 10:36:26;;;;;;;13.40;5.78;;;;;;;;;;5046906;28;40374;-67
2023/09/04 10:38:54;;;;;;;10.02;6.05;;;;;;;;;;5048159;28;41974;-68
2023/09/04 10:41:22;;;;;;;9.88;5.53;;;;;;;;;;5047507;28;43675;-68
2023/09/04 10:43:50;;;;;;;7.85;4.93;;;;;;;;;;5046294;28;40674;-69
2023/09/04 10:46:18;;;;;;;7.85;5.10;;;;;;;;;;5042177;28;42647;-69
2023/09/04 10:48:49;;;;;;;14.85;5.18;;;;;;;;;;5046547;28;42089;-69
2023/09/04 10:51:26;;;;;;;7.78;5.90;;;;;;;;;;5037680;28;41072;-69
2023/09/04 10:53:54;;;;;;;6.97;4.97;;;;;;;;;;5045651;28;43157;-69
2023/09/04 10:56:22;;;;;;;11.88;5.93;;;;;;;;;;5079264;28;38830;-68
2023/09/04 10:58:59;;;;;;;7.03;4.38;;;;;;;;;;5054119;28;41743;-68
2023/09/04 11:01:31;;;;;;;9.73;5.50;;;;;;;;;;5046024;28;41829;-69
2023/09/04 11:04:02;;;;;;;10.02;4.60;;;;;;;;;;5043514;28;41281;-69
2023/09/04 11:06:30;;;;;;;12.85;4.20;;;;;;;;;;5044165;28;42497;-68
2023/09/04 11:08:58;;;;;;;13.93;5.30;;;;;;;;;;5046250;28;41668;-69
2023/09/04 11:11:26;;;;;;;13.18;4.55;;;;;;;;;;5046686;28;41160;-68
2023/09/04 11:13:58;;;;;;;12.60;4.18;;;;;;;;;;5048481;28;42487;-67
2023/09/04 11:16:26;;;;;;;9.48;4.15;;;;;;;;;;5045717;28;40617;-69
2023/09/04 11:19:01;;;;;;;10.77;3.92;;;;;;;;;;5048008;28;41442;-70
2023/09/04 11:21:33;;;;;;;21.63;5.25;;;;;;;;;;5037537;28;42186;-67
2023/09/04 11:24:01;;;;;;;14.20;4.70;;;;;;;;;;5065986;28;41355;-69
2023/09/04 11:26:29;;;;;;;16.67;5.05;;;;;;;;;;5066784;28;42182;-68
2023/09/04 11:28:59;;;;;;;20.58;4.47;;;;;;;;;;5066141;28;42033;-68
2023/09/04 11:31:27;;;;;;;13.15;5.68;;;;;;;;;;5067338;28;40950;-68
2023/09/04 11:33:56;;;;;;;11.02;4.75;;;;;;;;;;5066484;28;41563;-68
2023/09/04 11:36:26;;;;;;;12.50;5.45;;;;;;;;;;5067919;28;32708;-69
2023/09/04 11:39:04;;;;;;;12.30;5.72;;;;;;;;;;5067271;28;42661;-68
2023/09/04 11:41:32;;;;;;;9.73;5.03;;;;;;;;;;5067988;28;43186;-69
2023/09/04 11:44:00;;;;;;;11.00;5.30;;;;;;;;;;5065520;28;38963;-69
2023/09/04 11:46:28;;;;;;;10.02;5.95;;;;;;;;;;5070553;28;41780;-68
2023/09/04 11:48:56;;;;;;;11.82;6.68;;;;;;;;;;5067516;28;41461;-68
2023/09/04 11:51:26;;;;;;;10.43;6.38;;;;;;;;;;5066388;28;40357;-68
2023/09/04 11:53:54;;;;;;;9.88;6.88;;;;;;;;;;5067780;28;42622;-68
2023/09/04 11:56:22;;;;;;;9.13;6.53;;;;;;;;;;5067552;28;42778;-68
2023/09/04 11:58:50;;;;;;;16.92;6.63;;;;;;;;;;5066879;28;42680;-70
2023/09/04 12:01:18;;;;;;;14.60;6.65;;;;;;;;;;5067064;28;42091;-68
2023/09/04 12:03:46;;;;;;;9.85;6.63;;;;;;;;;;5065084;28;39933;-68
2023/09/04 12:06:14;;;;;;;13.77;6.18;;;;;;;;;;5067858;28;42105;-68
2023/09/04 12:08:43;;;;;;;9.77;6.45;;;;;;;;;;5066731;28;42172;-68
2023/09/04 12:11:11;;;;;;;13.68;6.22;;;;;;;;;;5067266;28;40877;-68
2023/09/04 12:13:38;;;;;;;13.25;6.13;;;;;;;;;;5066457;28;40198;-67
2023/09/04 12:16:06;;;;;;;7.97;6.28;;;;;;;;;;5066666;28;42663;-68
2023/09/04 12:18:35;;;;;;;18.95;6.70;;;;;;;;;;5060661;28;40089;-68
2023/09/04 12:21:06;;;;;;;9.45;5.50;;;;;;;;;;5067588;28;42159;-68
2023/09/04 12:23:39;;;;;;;14.60;6.60;;;;;;;;;;5068472;28;40473;-69
2023/09/04 12:26:10;;;;;;;6.35;5.47;;;;;;;;;;5076090;28;40606;-67
2023/09/04 12:28:38;;;;;;;9.95;5.43;;;;;;;;;;5069583;28;44227;-68
2023/09/04 12:31:06;;;;;;;6.35;5.57;;;;;;;;;;5068641;28;40218;-68
2023/09/04 12:33:37;;;;;;;9.27;5.78;;;;;;;;;;5067963;28;41452;-69
2023/09/04 12:36:05;;;;;;;9.15;5.25;;;;;;;;;;5066240;28;43388;-69
2023/09/04 12:38:33;;;;;;;7.10;4.78;;;;;;;;;;5066574;28;39790;-70
2023/09/04 12:41:01;;;;;;;6.13;5.13;;;;;;;;;;5065119;28;41523;-68
2023/09/04 12:43:31;;;;;;;9.73;5.00;;;;;;;;;;5066341;28;41350;-70
2023/09/04 12:45:59;;;;;;;5.88;4.60;;;;;;;;;;5065249;28;42395;-67
2023/09/04 12:48:27;;;;;;;20.77;5.53;;;;;;;;;;5065963;28;41987;-70
2023/09/04 12:50:55;;;;;;;23.38;5.13;;;;;;;;;;5067118;28;41247;-68
2023/09/04 12:53:23;;;;;;;47.97;6.68;;;;;;;;;;5063764;28;41046;-68
2023/09/04 12:55:51;;;;;;;23.90;5.07;;;;;;;;;;5066874;28;41876;-69
2023/09/04 12:58:19;;;;;;;23.73;5.60;;;;;;;;;;5065090;28;40300;-69
2023/09/04 13:00:49;;;;;;;13.02;4.03;;;;;;;;;;5065238;28;41660;-68
2023/09/04 13:03:17;;;;;;;6.68;4.30;;;;;;;;;;5065412;28;42257;-68
2023/09/04 13:05:45;;;;;;;5.03;3.58;;;;;;;;;;5065862;28;41559;-69
2023/09/04 13:08:13;;;;;;;8.98;4.22;;;;;;;;;;5065765;28;42487;-69
2023/09/04 13:10:42;;;;;;;15.07;4.45;;;;;;;;;;5065140;28;40045;-69
2023/09/04 13:13:10;;;;;;;10.32;4.00;;;;;;;;;;5063527;28;42213;-69
2023/09/04 13:15:38;;;;;;;9.32;4.38;;;;;;;;;;5064019;28;42173;-69
2023/09/04 13:18:08;;;;;;;8.90;4.20;;;;;;;;;;5066375;28;40436;-70
2023/09/04 13:20:36;;;;;;;7.53;3.80;;;;;;;;;;5065428;28;42440;-68
2023/09/04 13:23:04;;;;;;;4.72;4.32;;;;;;;;;;5066016;28;43115;-69
2023/09/04 13:25:32;;;;;;;13.93;3.83;;;;;;;;;;5065854;28;40699;-68
2023/09/04 13:28:00;;;;;;;6.22;3.92;;;;;;;;;;5065582;28;42879;-68
2023/09/04 13:30:28;;;;;;;8.13;4.03;;;;;;;;;;5066017;28;41558;-68
2023/09/04 13:32:56;;;;;;;5.82;4.13;;;;;;;;;;5066020;28;41707;-68
2023/09/04 13:35:26;;;;;;;8.80;4.07;;;;;;;;;;5065139;28;43342;-69
2023/09/04 13:37:53;;;;;;;6.68;4.13;;;;;;;;;;5065577;28;39828;-69
2023/09/04 13:40:21;;;;;;;4.68;3.80;;;;;;;;;;5064950;28;41911;-68
2023/09/04 13:42:49;;;;;;;6.55;4.18;;;;;;;;;;5064567;28;42795;-69
2023/09/04 13:45:17;;;;;;;4.63;3.70;;;;;;;;;;5066429;28;41117;-68
2023/09/04 13:47:45;;;;;;;7.53;3.95;;;;;;;;;;5065944;28;42166;-68
2023/09/04 13:50:13;;;;;;;4.13;3.70;;;;;;;;;;5064926;28;40748;-69
2023/09/04 13:52:43;;;;;;;4.35;3.90;;;;;;;;;;5066180;28;42168;-68
2023/09/04 13:55:11;;;;;;;4.32;3.67;;;;;;;;;;5065211;28;43246;-68
2023/09/04 13:57:39;;;;;;;4.25;3.85;;;;;;;;;;5064341;28;41366;-68
2023/09/04 14:00:09;;;;;;;4.57;3.75;;;;;;;;;;5063904;28;40230;-68
2023/09/04 14:02:37;;;;;;;4.13;3.70;;;;;;;;;;5063055;28;43165;-68
2023/09/04 14:05:05;;;;;;;7.55;3.78;;;;;;;;;;5059301;28;41382;-68
2023/09/04 14:07:33;;;;;;;5.30;3.40;;;;;;;;;;5064860;28;41884;-68
2023/09/04 14:10:02;;;;;;;5.15;3.95;;;;;;;;;;5068328;28;41497;-68
2023/09/04 14:12:31;;;;;;;4.32;3.53;;;;;;;;;;5066969;28;41274;-69
2023/09/04 14:14:58;;;;;;;3.58;3.20;;;;;;;;;;5069772;28;43753;-68
2023/09/04 14:17:26;;;;;;;6.97;3.33;;;;;;;;;;5067456;28;40887;-69
2023/09/04 14:19:55;;;;;;;3.67;3.35;;;;;;;;;;5068811;28;41230;-68
2023/09/04 14:22:23;;;;;;;4.10;3.33;;;;;;;;;;5068156;28;43487;-68
2023/09/04 14:24:51;;;;;;;5.43;3.85;;;;;;;;;;5067755;28;38988;-68
2023/09/04 14:27:20;;;;;;;3.97;3.53;;;;;;;;;;5068310;28;42276;-68
2023/09/04 14:29:48;;;;;;;5.65;3.80;;;;;;;;;;5068509;28;43247;-68
2023/09/04 14:32:16;;;;;;;9.75;4.05;;;;;;;;;;5068331;28;41493;-68
2023/09/04 14:34:44;;;;;;;6.85;3.88;;;;;;;;;;5068062;28;42116;-68
2023/09/04 14:37:12;;;;;;;4.15;3.78;;;;;;;;;;5067326;28;40272;-68
2023/09/04 14:39:45;;;;;;;3.75;3.22;;;;;;;;;;5066361;28;42138;-68
2023/09/04 14:42:13;;;;;;;4.25;3.58;;;;;;;;;;5069920;28;41397;-68
2023/09/04 14:44:42;;;;;;;4.43;3.13;;;;;;;;;;5068213;28;40007;-68
2023/09/04 14:47:12;;;;;;;3.30;3.00;;;;;;;;;;5068473;28;41658;-68
2023/09/04 14:49:40;;;;;;;5.93;3.20;;;;;;;;;;5068134;28;42158;-68
2023/09/04 14:52:08;;;;;;;5.18;2.90;;;;;;;;;;5068434;28;40828;-68